Time;durP1;ratioP1;P1;durP2;ratioP2;P2;SDS_P1;SDS_P2;PMS_P1;PMS_P2;Temp;Humidity;BMP_temperature;BMP_pressure;BME280_temperature;BME280_humidity;BME280_pressure;Samples;Min_cycle;Max_cycle;Signal;HPM_P1;HPM_P2
2022/06/26 00:01:24;;;;;;;5.28;1.80;;;;;;;;;;4820690;29;20049;-81
2022/06/26 00:03:52;;;;;;;2.22;2.03;;;;;;;;;;4841720;29;20505;-81
2022/06/26 00:06:19;;;;;;;1.83;1.73;;;;;;;;;;4812297;29;20122;-81
2022/06/26 00:08:48;;;;;;;3.42;2.13;;;;;;;;;;4849476;29;20111;-81
2022/06/26 00:11:15;;;;;;;4.85;2.10;;;;;;;;;;4837422;29;20489;-80
2022/06/26 00:13:43;;;;;;;2.55;1.92;;;;;;;;;;4841045;29;20066;-81
2022/06/26 00:16:10;;;;;;;2.00;1.90;;;;;;;;;;4835127;29;20145;-81
2022/06/26 00:18:38;;;;;;;1.90;1.80;;;;;;;;;;4828830;29;20054;-80
2022/06/26 00:21:05;;;;;;;3.63;1.77;;;;;;;;;;4826946;29;20152;-81
2022/06/26 00:23:34;;;;;;;2.05;1.70;;;;;;;;;;4793635;29;20053;-81
2022/06/26 00:26:02;;;;;;;3.13;2.08;;;;;;;;;;4797787;29;20163;-81
2022/06/26 00:28:29;;;;;;;3.08;1.80;;;;;;;;;;4829120;29;20050;-81
2022/06/26 00:30:57;;;;;;;1.90;1.80;;;;;;;;;;4825431;29;20066;-81
2022/06/26 00:33:25;;;;;;;2.22;2.03;;;;;;;;;;4816739;29;20061;-81
2022/06/26 00:35:52;;;;;;;3.15;2.00;;;;;;;;;;4816875;29;20768;-80
2022/06/26 00:38:20;;;;;;;2.30;2.10;;;;;;;;;;4835849;29;20124;-81
2022/06/26 00:40:47;;;;;;;2.58;1.80;;;;;;;;;;4826336;29;20056;-81
2022/06/26 00:43:15;;;;;;;2.35;2.10;;;;;;;;;;4810427;29;20469;-80
2022/06/26 00:45:42;;;;;;;4.93;2.05;;;;;;;;;;4795005;29;20114;-80
2022/06/26 00:48:10;;;;;;;3.28;1.90;;;;;;;;;;4813022;29;20149;-80
2022/06/26 00:50:37;;;;;;;2.55;2.10;;;;;;;;;;4810605;29;20242;-80
2022/06/26 00:53:05;;;;;;;2.25;1.77;;;;;;;;;;4824611;29;20053;-80
2022/06/26 00:55:33;;;;;;;1.83;1.58;;;;;;;;;;4830079;29;20045;-80
2022/06/26 00:58:01;;;;;;;1.80;1.70;;;;;;;;;;4800424;29;20058;-80
2022/06/26 01:00:29;;;;;;;2.63;2.00;;;;;;;;;;4828522;29;20045;-81
2022/06/26 01:03:01;;;;;;;2.05;1.95;;;;;;;;;;4803169;29;20519;-80
2022/06/26 01:05:32;;;;;;;2.05;1.95;;;;;;;;;;4809363;29;20049;-80
2022/06/26 01:08:03;;;;;;;2.30;2.05;;;;;;;;;;4829165;29;20903;-80
2022/06/26 01:10:32;;;;;;;2.30;2.20;;;;;;;;;;4826729;29;20062;-79
2022/06/26 01:13:01;;;;;;;2.55;2.10;;;;;;;;;;4830034;29;20098;-79
2022/06/26 01:15:31;;;;;;;5.70;2.30;;;;;;;;;;4826957;29;20070;-79
2022/06/26 01:18:03;;;;;;;2.80;2.20;;;;;;;;;;4829967;29;20137;-79
2022/06/26 01:20:33;;;;;;;2.40;2.20;;;;;;;;;;4813332;29;20058;-79
2022/06/26 01:23:05;;;;;;;3.30;2.10;;;;;;;;;;4807016;29;20169;-79
2022/06/26 01:25:41;;;;;;;2.58;2.28;;;;;;;;;;4824307;29;20056;-79
2022/06/26 01:28:11;;;;;;;2.97;2.10;;;;;;;;;;4828116;29;20617;-79
2022/06/26 01:30:41;;;;;;;4.63;2.28;;;;;;;;;;4802924;29;20092;-80
2022/06/26 01:33:09;;;;;;;2.25;2.10;;;;;;;;;;4813520;29;20053;-79
2022/06/26 01:35:37;;;;;;;6.03;2.00;;;;;;;;;;4816759;29;20041;-79
2022/06/26 01:38:13;;;;;;;4.15;2.08;;;;;;;;;;4810511;29;20088;-79
2022/06/26 01:40:41;;;;;;;2.45;2.10;;;;;;;;;;4849533;29;20045;-79
2022/06/26 01:43:12;;;;;;;2.10;2.00;;;;;;;;;;4828247;29;20094;-79
2022/06/26 01:45:46;;;;;;;8.75;2.15;;;;;;;;;;4843355;29;20053;-79
2022/06/26 01:48:14;;;;;;;4.72;2.30;;;;;;;;;;4825658;29;20145;-79
2022/06/26 01:50:43;;;;;;;3.25;2.67;;;;;;;;;;4827708;29;20042;-79
2022/06/26 01:53:11;;;;;;;4.55;2.28;;;;;;;;;;4836161;29;20412;-79
2022/06/26 01:55:40;;;;;;;2.65;2.45;;;;;;;;;;4831476;29;20041;-79
2022/06/26 01:58:10;;;;;;;2.45;2.25;;;;;;;;;;4829371;29;20490;-79
2022/06/26 02:00:39;;;;;;;2.60;2.40;;;;;;;;;;4835295;29;20049;-79
2022/06/26 02:03:06;;;;;;;3.03;2.17;;;;;;;;;;4827638;29;20120;-79
2022/06/26 02:05:34;;;;;;;2.25;2.03;;;;;;;;;;4811290;29;20080;-79
2022/06/26 02:08:02;;;;;;;2.22;1.98;;;;;;;;;;4814654;29;20484;-79
2022/06/26 02:13:36;;;;;;;2.30;2.20;;;;;;;;;;4831352;29;20046;-79
2022/06/26 02:16:10;;;;;;;2.55;2.25;;;;;;;;;;4811667;29;20046;-79
2022/06/26 02:18:39;;;;;;;4.60;2.70;;;;;;;;;;4830282;29;20072;-79
2022/06/26 02:21:08;;;;;;;3.80;2.60;;;;;;;;;;4844071;29;20038;-79
2022/06/26 02:23:36;;;;;;;2.47;2.38;;;;;;;;;;4828939;29;20045;-79
2022/06/26 02:26:05;;;;;;;3.85;2.40;;;;;;;;;;4816764;29;20045;-79
2022/06/26 02:28:32;;;;;;;3.55;3.25;;;;;;;;;;4843945;29;20049;-79
2022/06/26 02:30:59;;;;;;;2.97;2.65;;;;;;;;;;4830742;29;20049;-79
2022/06/26 02:33:38;;;;;;;2.72;2.53;;;;;;;;;;4817042;29;20081;-79
2022/06/26 02:36:06;;;;;;;2.92;2.72;;;;;;;;;;4847041;29;20057;-79
2022/06/26 02:38:34;;;;;;;3.60;3.30;;;;;;;;;;4827712;29;20042;-79
2022/06/26 02:41:03;;;;;;;3.75;3.05;;;;;;;;;;4811870;29;20128;-79
2022/06/26 02:43:30;;;;;;;5.15;4.15;;;;;;;;;;4816675;29;20088;-79
2022/06/26 02:46:02;;;;;;;4.68;4.35;;;;;;;;;;4816740;29;20060;-79
2022/06/26 02:48:30;;;;;;;13.52;4.68;;;;;;;;;;4830631;29;20068;-79
2022/06/26 02:50:57;;;;;;;4.20;3.88;;;;;;;;;;4830016;29;20069;-79
2022/06/26 02:53:25;;;;;;;4.72;4.10;;;;;;;;;;4831554;29;20463;-79
2022/06/26 02:55:52;;;;;;;6.30;4.25;;;;;;;;;;4825236;29;20046;-79
2022/06/26 02:58:21;;;;;;;4.28;3.90;;;;;;;;;;4827610;29;20045;-79
2022/06/26 03:01:01;;;;;;;4.40;4.00;;;;;;;;;;4812249;29;20064;-79
2022/06/26 03:03:29;;;;;;;4.25;3.78;;;;;;;;;;4845722;29;20820;-79
2022/06/26 03:05:57;;;;;;;3.83;3.50;;;;;;;;;;4829504;29;20468;-79
2022/06/26 03:08:27;;;;;;;4.00;3.70;;;;;;;;;;4812623;29;20058;-79
2022/06/26 03:10:57;;;;;;;3.83;3.40;;;;;;;;;;4797744;29;20061;-79
2022/06/26 03:13:25;;;;;;;3.75;3.45;;;;;;;;;;4823629;29;20097;-79
2022/06/26 03:15:52;;;;;;;3.55;3.15;;;;;;;;;;4814509;29;20057;-79
2022/06/26 03:18:20;;;;;;;3.63;3.42;;;;;;;;;;4827594;29;20057;-79
2022/06/26 03:20:47;;;;;;;3.85;3.55;;;;;;;;;;4819069;29;20058;-79
2022/06/26 03:23:15;;;;;;;5.28;4.18;;;;;;;;;;4831242;29;20053;-79
2022/06/26 03:25:42;;;;;;;3.80;3.28;;;;;;;;;;4825686;29;20057;-79
2022/06/26 03:28:10;;;;;;;4.97;3.72;;;;;;;;;;4831759;29;20101;-79
2022/06/26 03:30:44;;;;;;;4.15;3.90;;;;;;;;;;4844947;29;20053;-79
2022/06/26 03:33:11;;;;;;;4.40;4.00;;;;;;;;;;4824340;29;20125;-79
2022/06/26 03:35:39;;;;;;;5.72;4.10;;;;;;;;;;4804669;29;20042;-79
2022/06/26 03:38:07;;;;;;;4.50;4.10;;;;;;;;;;4812201;29;20073;-79
2022/06/26 03:40:35;;;;;;;6.80;4.82;;;;;;;;;;4830419;29;20045;-79
2022/06/26 03:43:03;;;;;;;4.82;4.40;;;;;;;;;;4826959;29;20109;-79
2022/06/26 03:45:45;;;;;;;;;;;;;;;;;;4824323;29;20503;-79
2022/06/26 03:48:13;;;;;;;4.20;3.60;;;;;;;;;;4839375;29;19931;-79
2022/06/26 03:50:40;;;;;;;4.05;3.75;;;;;;;;;;4828712;29;20077;-79
2022/06/26 03:53:08;;;;;;;4.55;4.15;;;;;;;;;;4834203;29;20057;-79
2022/06/26 03:55:36;;;;;;;6.03;4.38;;;;;;;;;;4816815;29;20060;-79
2022/06/26 03:58:04;;;;;;;4.78;4.40;;;;;;;;;;4831198;29;20042;-79
2022/06/26 04:00:34;;;;;;;4.45;4.15;;;;;;;;;;4827943;29;20041;-79
2022/06/26 04:03:05;;;;;;;4.30;3.97;;;;;;;;;;4828555;29;20045;-79
2022/06/26 04:05:33;;;;;;;16.65;5.53;;;;;;;;;;4812479;29;20124;-79
2022/06/26 04:08:01;;;;;;;5.05;4.70;;;;;;;;;;4813658;29;20128;-79
2022/06/26 04:10:36;;;;;;;4.55;4.07;;;;;;;;;;4826811;29;20060;-79
2022/06/26 04:13:12;;;;;;;4.72;3.97;;;;;;;;;;4827524;29;20038;-79
2022/06/26 04:15:42;;;;;;;4.35;4.07;;;;;;;;;;4817185;29;20053;-79
2022/06/26 04:18:09;;;;;;;4.85;4.47;;;;;;;;;;4815891;29;20447;-79
2022/06/26 04:20:37;;;;;;;4.43;4.00;;;;;;;;;;4827068;29;20097;-79
2022/06/26 04:23:07;;;;;;;9.13;4.50;;;;;;;;;;4829130;29;20739;-79
2022/06/26 04:25:36;;;;;;;7.30;5.10;;;;;;;;;;4824317;29;20567;-79
2022/06/26 04:28:04;;;;;;;15.25;4.97;;;;;;;;;;4806894;29;20349;-79
2022/06/26 04:30:35;;;;;;;12.25;4.47;;;;;;;;;;4808862;29;20084;-79
2022/06/26 04:33:03;;;;;;;4.72;4.43;;;;;;;;;;4825696;29;20042;-79
2022/06/26 04:35:33;;;;;;;5.10;4.70;;;;;;;;;;4824769;29;20050;-79
2022/06/26 04:38:01;;;;;;;4.80;4.40;;;;;;;;;;4836964;29;20043;-79
2022/06/26 04:40:29;;;;;;;70.95;5.63;;;;;;;;;;4820937;29;20506;-79
2022/06/26 04:42:57;;;;;;;4.85;4.45;;;;;;;;;;4855411;29;20054;-79
2022/06/26 04:45:24;;;;;;;5.18;4.63;;;;;;;;;;4806552;29;20430;-79
2022/06/26 04:47:55;;;;;;;4.90;4.40;;;;;;;;;;4824341;29;20043;-79
2022/06/26 04:50:23;;;;;;;3.97;3.63;;;;;;;;;;4806537;29;20050;-79
2022/06/26 04:52:53;;;;;;;3.72;3.42;;;;;;;;;;4823169;29;20496;-79
2022/06/26 04:55:25;;;;;;;4.20;3.90;;;;;;;;;;4836214;29;20053;-79
2022/06/26 04:57:53;;;;;;;5.00;4.60;;;;;;;;;;4804234;29;20061;-79
2022/06/26 05:00:20;;;;;;;5.32;4.93;;;;;;;;;;4805134;29;20309;-79
2022/06/26 05:03:17;;;;;;;5.75;4.53;;;;;;;;;;4826165;29;20503;-79
2022/06/26 05:06:03;;;;;;;4.90;4.40;;;;;;;;;;4839022;29;20455;-79
2022/06/26 05:08:37;;;;;;;4.90;4.60;;;;;;;;;;4821234;29;20064;-79
2022/06/26 05:11:05;;;;;;;5.18;4.78;;;;;;;;;;4822354;29;20466;-80
2022/06/26 05:13:36;;;;;;;5.18;4.82;;;;;;;;;;4830035;29;20076;-79
2022/06/26 05:16:23;;;;;;;5.68;5.22;;;;;;;;;;4846190;29;20851;-79
2022/06/26 05:18:51;;;;;;;5.50;5.10;;;;;;;;;;4837894;29;20080;-79
2022/06/26 05:21:20;;;;;;;5.30;4.88;;;;;;;;;;4844068;29;20045;-79
2022/06/26 05:23:48;;;;;;;5.95;5.55;;;;;;;;;;4827097;29;20046;-79
2022/06/26 05:26:16;;;;;;;6.53;5.32;;;;;;;;;;4839585;29;20123;-79
2022/06/26 05:28:43;;;;;;;5.68;5.13;;;;;;;;;;4820473;29;20058;-79
2022/06/26 05:31:11;;;;;;;8.48;6.43;;;;;;;;;;4823539;29;20054;-79
2022/06/26 05:33:41;;;;;;;6.03;5.63;;;;;;;;;;4823414;29;20050;-79
2022/06/26 05:36:10;;;;;;;5.80;5.38;;;;;;;;;;4823195;29;20128;-79
2022/06/26 05:38:39;;;;;;;5.53;5.20;;;;;;;;;;4802754;29;20054;-78
2022/06/26 05:41:06;;;;;;;5.82;5.43;;;;;;;;;;4842055;29;20080;-80
2022/06/26 05:43:35;;;;;;;5.70;5.30;;;;;;;;;;4825680;29;20053;-78
2022/06/26 05:46:06;;;;;;;6.07;5.68;;;;;;;;;;4859499;24;20548;-76
2022/06/26 05:48:52;;;;;;;6.22;5.50;;;;;;;;;;4858915;29;20133;-77
2022/06/26 05:51:49;;;;;;;6.10;5.60;;;;;;;;;;4820569;29;20046;-76
2022/06/26 05:54:23;;;;;;;5.53;5.13;;;;;;;;;;4821486;29;20094;-76
2022/06/26 05:57:10;;;;;;;5.72;5.32;;;;;;;;;;4825123;29;20049;-77
2022/06/26 05:59:56;;;;;;;5.22;4.93;;;;;;;;;;4858845;29;20491;-76
2022/06/26 06:02:43;;;;;;;5.43;5.03;;;;;;;;;;4856323;29;20041;-76
2022/06/26 06:05:12;;;;;;;5.25;4.85;;;;;;;;;;4849080;29;20045;-75
2022/06/26 06:07:41;;;;;;;5.22;4.82;;;;;;;;;;4835371;29;20064;-76
2022/06/26 06:10:09;;;;;;;6.32;5.00;;;;;;;;;;4850956;29;20056;-77
2022/06/26 06:12:40;;;;;;;4.93;4.63;;;;;;;;;;4830564;29;20045;-76
2022/06/26 06:15:08;;;;;;;5.20;4.85;;;;;;;;;;4835002;29;20060;-76
2022/06/26 06:17:41;;;;;;;4.78;4.47;;;;;;;;;;4837597;29;20065;-75
2022/06/26 06:20:13;;;;;;;4.72;4.43;;;;;;;;;;4834450;29;20096;-76
2022/06/26 06:22:47;;;;;;;4.65;4.35;;;;;;;;;;4832069;29;20041;-75
2022/06/26 06:25:15;;;;;;;4.95;4.35;;;;;;;;;;4835402;29;20053;-76
2022/06/26 06:27:44;;;;;;;5.22;4.82;;;;;;;;;;4838492;29;20046;-76
2022/06/26 06:30:16;;;;;;;4.82;4.43;;;;;;;;;;4825707;29;20503;-75
2022/06/26 06:32:45;;;;;;;4.60;4.30;;;;;;;;;;4837966;29;20566;-76
2022/06/26 06:35:27;;;;;;;4.28;3.97;;;;;;;;;;4834951;29;20037;-75
2022/06/26 06:37:55;;;;;;;4.35;4.05;;;;;;;;;;4837295;29;20047;-76
2022/06/26 06:40:23;;;;;;;4.47;4.15;;;;;;;;;;4846835;29;20048;-75
2022/06/26 06:42:54;;;;;;;4.40;4.00;;;;;;;;;;4849710;29;20052;-76
2022/06/26 06:45:26;;;;;;;6.25;4.00;;;;;;;;;;4837075;29;20046;-76
2022/06/26 06:47:57;;;;;;;4.22;3.92;;;;;;;;;;4819712;29;20061;-76
2022/06/26 06:50:40;;;;;;;4.15;3.70;;;;;;;;;;4841870;29;20137;-76
2022/06/26 06:53:09;;;;;;;4.30;4.00;;;;;;;;;;4836372;29;20050;-76
2022/06/26 06:55:36;;;;;;;3.53;3.22;;;;;;;;;;4844166;29;20124;-76
2022/06/26 06:58:06;;;;;;;3.60;3.40;;;;;;;;;;4841998;29;20057;-77
2022/06/26 07:00:33;;;;;;;3.40;3.20;;;;;;;;;;4825676;29;20049;-77
2022/06/26 07:03:04;;;;;;;3.53;3.33;;;;;;;;;;4838755;29;20096;-77
2022/06/26 07:05:32;;;;;;;3.78;3.30;;;;;;;;;;4839034;29;20053;-76
2022/06/26 07:08:00;;;;;;;3.05;2.85;;;;;;;;;;4823731;29;20577;-77
2022/06/26 07:10:28;;;;;;;2.90;2.80;;;;;;;;;;4856253;29;20451;-77
2022/06/26 07:12:57;;;;;;;3.30;3.00;;;;;;;;;;4824580;29;20090;-77
2022/06/26 07:15:25;;;;;;;3.58;3.28;;;;;;;;;;4852355;29;20951;-77
2022/06/26 07:17:52;;;;;;;3.40;3.10;;;;;;;;;;4849529;29;20100;-76
2022/06/26 07:20:20;;;;;;;3.08;2.80;;;;;;;;;;4821222;29;20069;-76
2022/06/26 07:22:47;;;;;;;3.05;2.63;;;;;;;;;;4836627;29;20041;-75
2022/06/26 07:25:35;;;;;;;2.47;2.38;;;;;;;;;;4836943;29;20430;-77
2022/06/26 07:28:05;;;;;;;3.30;3.05;;;;;;;;;;4841944;29;20052;-77
2022/06/26 07:30:36;;;;;;;4.25;2.60;;;;;;;;;;4842234;29;20056;-76
2022/06/26 07:35:57;;;;;;;4.00;2.97;;;;;;;;;;4820629;29;20265;-76
2022/06/26 07:38:29;;;;;;;3.10;2.60;;;;;;;;;;4820454;29;20126;-75
2022/06/26 07:40:57;;;;;;;2.70;2.50;;;;;;;;;;4819986;29;20534;-76
2022/06/26 07:43:26;;;;;;;4.03;2.65;;;;;;;;;;4829561;29;20048;-76
2022/06/26 07:45:53;;;;;;;3.67;2.50;;;;;;;;;;4848493;29;20042;-76
2022/06/26 07:48:21;;;;;;;2.50;2.30;;;;;;;;;;4841896;29;20065;-76
2022/06/26 07:50:53;;;;;;;;;;;;;;;;;;4840729;29;20049;-76
2022/06/26 07:53:21;;;;;;;2.42;2.20;;;;;;;;;;4835682;29;19928;-77
2022/06/26 07:55:48;;;;;;;2.00;1.90;;;;;;;;;;4845738;29;20137;-76
2022/06/26 07:58:16;;;;;;;2.15;2.00;;;;;;;;;;4848630;29;20049;-76
2022/06/26 08:00:43;;;;;;;1.98;1.80;;;;;;;;;;4848560;29;20116;-77
2022/06/26 08:03:14;;;;;;;2.17;1.90;;;;;;;;;;4845931;29;20098;-76
2022/06/26 08:05:42;;;;;;;1.98;1.75;;;;;;;;;;4821999;29;20098;-76
2022/06/26 08:08:10;;;;;;;1.60;1.50;;;;;;;;;;4862493;29;20126;-77
2022/06/26 08:10:38;;;;;;;2.85;1.50;;;;;;;;;;4851549;29;20478;-76
2022/06/26 08:13:06;;;;;;;3.97;1.70;;;;;;;;;;4870898;29;20527;-76
2022/06/26 08:15:34;;;;;;;1.98;1.65;;;;;;;;;;4871692;29;20053;-75
2022/06/26 08:18:02;;;;;;;1.90;1.80;;;;;;;;;;4853825;29;20060;-76
2022/06/26 08:20:29;;;;;;;1.90;1.80;;;;;;;;;;4866025;29;20585;-76
2022/06/26 08:22:57;;;;;;;3.00;1.75;;;;;;;;;;4841698;29;20044;-77
2022/06/26 08:25:24;;;;;;;3.22;1.98;;;;;;;;;;4856838;29;20076;-77
2022/06/26 08:27:52;;;;;;;4.60;2.00;;;;;;;;;;4852201;29;20061;-77
2022/06/26 08:30:19;;;;;;;1.83;1.73;;;;;;;;;;4856194;29;20128;-76
2022/06/26 08:32:47;;;;;;;1.95;1.85;;;;;;;;;;4860652;29;20060;-76
2022/06/26 08:35:14;;;;;;;3.85;2.00;;;;;;;;;;4853960;29;20073;-77
2022/06/26 08:37:42;;;;;;;1.90;1.77;;;;;;;;;;4858077;29;20618;-76
2022/06/26 08:40:10;;;;;;;2.00;1.90;;;;;;;;;;4859653;29;20097;-77
2022/06/26 08:42:39;;;;;;;2.80;2.20;;;;;;;;;;4855600;29;20045;-76
2022/06/26 08:45:07;;;;;;;4.03;3.30;;;;;;;;;;4857809;29;20049;-77
2022/06/26 08:47:37;;;;;;;4.25;1.80;;;;;;;;;;4863066;29;20071;-77
2022/06/26 08:50:07;;;;;;;2.00;1.90;;;;;;;;;;4862129;29;20577;-77
2022/06/26 08:52:34;;;;;;;4.22;1.92;;;;;;;;;;4862204;29;21272;-76
2022/06/26 08:55:04;;;;;;;1.60;1.50;;;;;;;;;;4858928;29;20041;-76
2022/06/26 08:57:33;;;;;;;2.28;1.80;;;;;;;;;;4859563;29;20116;-77
2022/06/26 09:00:01;;;;;;;1.90;1.80;;;;;;;;;;4816593;29;20470;-75
2022/06/26 09:02:28;;;;;;;3.10;1.80;;;;;;;;;;4860354;29;20506;-76
2022/06/26 09:04:56;;;;;;;3.17;1.90;;;;;;;;;;4844382;29;20063;-76
2022/06/26 09:07:24;;;;;;;2.30;1.70;;;;;;;;;;4848496;29;20807;-76
2022/06/26 09:09:52;;;;;;;3.22;1.80;;;;;;;;;;4863365;29;20462;-77
2022/06/26 09:12:19;;;;;;;2.88;1.70;;;;;;;;;;4858883;29;20076;-77
2022/06/26 09:14:51;;;;;;;1.83;1.50;;;;;;;;;;4859083;29;20038;-75
2022/06/26 09:17:23;;;;;;;2.25;1.63;;;;;;;;;;4856914;29;20068;-76
2022/06/26 09:19:51;;;;;;;1.60;1.30;;;;;;;;;;4859777;29;20147;-76
2022/06/26 09:22:19;;;;;;;2.25;1.48;;;;;;;;;;4846294;29;20041;-75
2022/06/26 09:24:57;;;;;;;2.80;1.50;;;;;;;;;;4857794;29;20056;-76
2022/06/26 09:27:24;;;;;;;1.55;1.45;;;;;;;;;;4856288;29;20045;-75
2022/06/26 09:29:56;;;;;;;2.45;1.33;;;;;;;;;;4845801;29;20061;-76
2022/06/26 09:32:24;;;;;;;1.23;1.13;;;;;;;;;;4856303;29;20140;-77
2022/06/26 09:34:53;;;;;;;1.42;1.10;;;;;;;;;;4841139;29;20099;-77
2022/06/26 09:37:21;;;;;;;1.40;1.30;;;;;;;;;;4830394;29;20133;-76
2022/06/26 09:40:13;;;;;;;2.03;1.13;;;;;;;;;;4863970;29;20042;-76
2022/06/26 09:42:41;;;;;;;1.10;1.10;;;;;;;;;;4832269;29;20517;-77
2022/06/26 09:45:10;;;;;;;1.90;1.20;;;;;;;;;;4831054;29;20060;-76
2022/06/26 09:47:39;;;;;;;1.30;0.90;;;;;;;;;;4846094;29;20132;-76
2022/06/26 09:50:07;;;;;;;1.20;1.20;;;;;;;;;;4859555;29;20573;-77
2022/06/26 09:52:35;;;;;;;2.83;1.55;;;;;;;;;;4862376;29;20101;-76
2022/06/26 09:55:07;;;;;;;1.92;1.40;;;;;;;;;;4879650;29;20045;-76
2022/06/26 09:57:36;;;;;;;1.35;1.25;;;;;;;;;;4874322;29;20057;-76
2022/06/26 10:00:05;;;;;;;1.13;1.02;;;;;;;;;;4848563;29;20055;-77
2022/06/26 10:08:14;;;;;;;1.23;1.20;;;;;;;;;;4880593;29;20067;-77
2022/06/26 10:10:42;;;;;;;1.08;0.98;;;;;;;;;;4863932;29;20053;-77
2022/06/26 10:13:10;;;;;;;1.67;0.90;;;;;;;;;;4863868;29;20069;-77
2022/06/26 10:15:40;;;;;;;2.67;1.10;;;;;;;;;;4881395;29;20061;-77
2022/06/26 10:18:23;;;;;;;1.00;1.00;;;;;;;;;;4866336;29;20291;-76
2022/06/26 10:20:50;;;;;;;1.42;1.05;;;;;;;;;;4880498;29;20045;-77
2022/06/26 10:23:50;;;;;;;1.25;1.05;;;;;;;;;;4880196;29;20117;-77
2022/06/26 10:26:20;;;;;;;1.70;1.05;;;;;;;;;;4857127;29;20274;-77
2022/06/26 10:28:56;;;;;;;2.65;1.60;;;;;;;;;;4861164;29;20053;-76
2022/06/26 10:31:24;;;;;;;1.48;1.17;;;;;;;;;;4847434;29;20082;-76
2022/06/26 10:33:53;;;;;;;2.40;1.20;;;;;;;;;;4877290;29;20144;-76
2022/06/26 10:36:22;;;;;;;1.20;1.20;;;;;;;;;;4858079;29;20068;-76
2022/06/26 10:38:50;;;;;;;1.35;1.08;;;;;;;;;;4872235;29;20045;-76
2022/06/26 10:44:07;;;;;;;2.42;1.27;;;;;;;;;;4860898;29;20049;-77
2022/06/26 10:46:36;;;;;;;1.92;1.23;;;;;;;;;;4840952;29;20121;-76
2022/06/26 10:49:08;;;;;;;0.95;0.95;;;;;;;;;;4844485;29;20048;-75
2022/06/26 10:51:38;;;;;;;1.80;1.38;;;;;;;;;;4833740;29;20113;-75
2022/06/26 10:54:17;;;;;;;2.10;1.10;;;;;;;;;;4862087;29;20120;-76
2022/06/26 10:56:46;;;;;;;0.98;0.98;;;;;;;;;;4863426;29;20041;-75
2022/06/26 10:59:20;;;;;;;2.13;1.20;;;;;;;;;;4864619;29;20159;-75
2022/06/26 11:01:47;;;;;;;1.13;1.10;;;;;;;;;;4865954;29;20642;-76
2022/06/26 11:04:15;;;;;;;2.15;0.93;;;;;;;;;;4871961;29;20049;-75
2022/06/26 11:06:43;;;;;;;1.65;1.10;;;;;;;;;;4869636;29;20059;-75
2022/06/26 11:09:16;;;;;;;2.03;1.05;;;;;;;;;;4848820;29;20176;-76
2022/06/26 11:11:43;;;;;;;1.30;1.20;;;;;;;;;;4839202;29;20053;-77
2022/06/26 11:14:10;;;;;;;2.05;1.10;;;;;;;;;;4847957;29;20495;-75
2022/06/26 11:16:43;;;;;;;1.00;1.00;;;;;;;;;;4841089;29;20052;-75
2022/06/26 11:19:27;;;;;;;1.10;1.10;;;;;;;;;;4851952;29;20045;-77
2022/06/26 11:22:04;;;;;;;1.67;1.00;;;;;;;;;;4852131;29;20444;-76
2022/06/26 11:24:32;;;;;;;1.00;0.82;;;;;;;;;;4857568;29;20049;-76
2022/06/26 11:26:59;;;;;;;2.00;1.15;;;;;;;;;;4858006;29;20137;-77
2022/06/26 11:29:27;;;;;;;1.67;1.00;;;;;;;;;;4856971;29;20078;-75
2022/06/26 11:31:56;;;;;;;1.10;1.10;;;;;;;;;;4855800;29;20483;-74
2022/06/26 11:34:24;;;;;;;1.23;1.05;;;;;;;;;;4858943;29;20051;-77
2022/06/26 11:36:55;;;;;;;2.20;0.90;;;;;;;;;;4861260;29;20075;-77
2022/06/26 11:39:42;;;;;;;1.05;1.05;;;;;;;;;;4863058;29;20037;-77
2022/06/26 11:42:16;;;;;;;0.90;0.90;;;;;;;;;;4857668;29;20054;-77
2022/06/26 11:44:48;;;;;;;1.23;0.70;;;;;;;;;;4849335;29;20041;-77
2022/06/26 11:47:16;;;;;;;0.60;0.60;;;;;;;;;;4857455;29;21008;-76
2022/06/26 11:49:44;;;;;;;0.60;0.60;;;;;;;;;;4859783;29;20053;-77
2022/06/26 11:52:11;;;;;;;0.70;0.70;;;;;;;;;;4834526;29;20506;-76
2022/06/26 11:54:39;;;;;;;2.30;0.73;;;;;;;;;;4863711;29;20076;-76
2022/06/26 11:57:08;;;;;;;1.35;0.82;;;;;;;;;;4830753;29;20136;-76
2022/06/26 11:59:42;;;;;;;0.68;0.60;;;;;;;;;;4864902;29;20549;-76
2022/06/26 12:02:22;;;;;;;1.23;0.73;;;;;;;;;;4848370;29;20041;-77
2022/06/26 12:04:56;;;;;;;0.60;0.60;;;;;;;;;;4847992;29;20462;-76
2022/06/26 12:07:24;;;;;;;1.00;0.60;;;;;;;;;;4828258;29;20157;-76
2022/06/26 12:09:52;;;;;;;0.40;0.40;;;;;;;;;;4866066;29;20132;-76
2022/06/26 12:12:19;;;;;;;0.45;0.45;;;;;;;;;;4845014;29;20048;-76
2022/06/26 12:14:51;;;;;;;0.50;0.50;;;;;;;;;;4850262;29;20041;-78
2022/06/26 12:17:22;;;;;;;0.40;0.40;;;;;;;;;;4865796;29;20045;-77
2022/06/26 12:19:50;;;;;;;0.80;0.40;;;;;;;;;;4859133;29;20044;-77
2022/06/26 12:22:31;;;;;;;0.63;0.50;;;;;;;;;;4853339;29;20064;-75
2022/06/26 12:24:59;;;;;;;0.82;0.45;;;;;;;;;;4872098;29;20363;-76
2022/06/26 12:27:53;;;;;;;0.45;0.45;;;;;;;;;;4872072;29;20078;-76
2022/06/26 12:30:22;;;;;;;0.45;0.45;;;;;;;;;;4847456;29;20061;-76
2022/06/26 12:32:55;;;;;;;0.50;0.50;;;;;;;;;;4862238;29;20077;-75
2022/06/26 12:35:22;;;;;;;1.20;0.40;;;;;;;;;;4858459;29;20124;-75
2022/06/26 12:37:50;;;;;;;3.75;0.40;;;;;;;;;;4853405;29;20125;-76
2022/06/26 12:40:18;;;;;;;0.50;0.50;;;;;;;;;;4847553;29;20069;-75
2022/06/26 12:42:47;;;;;;;0.35;0.30;;;;;;;;;;4863374;29;20045;-75
2022/06/26 12:45:14;;;;;;;0.30;0.30;;;;;;;;;;4860738;29;20057;-77
2022/06/26 12:47:41;;;;;;;0.75;0.47;;;;;;;;;;4846913;29;20064;-77
2022/06/26 12:50:09;;;;;;;0.40;0.40;;;;;;;;;;4848045;29;20099;-76
2022/06/26 12:52:37;;;;;;;0.40;0.38;;;;;;;;;;4859937;29;20053;-76
2022/06/26 12:55:06;;;;;;;0.73;0.73;;;;;;;;;;4858519;29;20167;-76
2022/06/26 12:57:34;;;;;;;2.03;0.40;;;;;;;;;;4845471;29;20070;-75
2022/06/26 13:00:04;;;;;;;0.93;0.40;;;;;;;;;;4867671;29;20047;-75
2022/06/26 13:02:31;;;;;;;1.77;0.40;;;;;;;;;;4871812;29;20044;-77
2022/06/26 13:04:58;;;;;;;1.23;0.30;;;;;;;;;;4866651;29;20100;-77
2022/06/26 13:07:26;;;;;;;0.40;0.40;;;;;;;;;;4868731;29;20053;-76
2022/06/26 13:09:58;;;;;;;0.75;0.30;;;;;;;;;;4867885;29;20037;-76
2022/06/26 13:12:26;;;;;;;0.45;0.30;;;;;;;;;;4867436;29;20081;-77
2022/06/26 13:14:54;;;;;;;2.20;0.30;;;;;;;;;;4855495;29;20095;-77
2022/06/26 13:17:24;;;;;;;0.38;0.30;;;;;;;;;;4874088;29;20132;-76
2022/06/26 13:19:51;;;;;;;0.25;0.20;;;;;;;;;;4864767;29;20059;-77
2022/06/26 13:22:19;;;;;;;0.85;0.20;;;;;;;;;;4870271;29;20097;-77
2022/06/26 13:24:46;;;;;;;0.40;0.40;;;;;;;;;;4875581;29;20045;-76
2022/06/26 13:27:14;;;;;;;0.30;0.30;;;;;;;;;;4853610;29;20053;-75
2022/06/26 13:29:41;;;;;;;0.20;0.20;;;;;;;;;;4858660;29;20049;-75
2022/06/26 13:32:15;;;;;;;0.17;0.17;;;;;;;;;;4868594;29;20078;-76
2022/06/26 13:34:42;;;;;;;0.63;0.35;;;;;;;;;;4868149;29;20045;-76
2022/06/26 13:37:10;;;;;;;0.60;0.40;;;;;;;;;;4872110;29;20051;-77
2022/06/26 13:39:39;;;;;;;0.55;0.40;;;;;;;;;;4856726;29;20037;-76
2022/06/26 13:42:06;;;;;;;0.63;0.25;;;;;;;;;;4864736;29;22349;-77
2022/06/26 13:44:34;;;;;;;0.60;0.20;;;;;;;;;;4858566;29;20038;-77
2022/06/26 13:47:01;;;;;;;0.28;0.28;;;;;;;;;;4873892;29;20057;-76
2022/06/26 13:49:29;;;;;;;0.30;0.30;;;;;;;;;;4866196;29;20077;-77
2022/06/26 13:51:57;;;;;;;0.30;0.30;;;;;;;;;;4861374;29;20099;-77
2022/06/26 13:54:31;;;;;;;0.30;0.30;;;;;;;;;;4860294;29;20056;-76
2022/06/26 13:57:00;;;;;;;0.20;0.20;;;;;;;;;;4848149;29;20056;-76
2022/06/26 13:59:28;;;;;;;0.55;0.28;;;;;;;;;;4860091;29;20183;-76
2022/06/26 14:01:56;;;;;;;1.10;0.20;;;;;;;;;;4880275;29;20061;-77
2022/06/26 14:04:23;;;;;;;1.20;0.30;;;;;;;;;;4861310;29;20510;-76
2022/06/26 14:06:51;;;;;;;0.43;0.30;;;;;;;;;;4860884;29;20056;-76
2022/06/26 14:09:18;;;;;;;0.30;0.20;;;;;;;;;;4841606;29;20056;-75
2022/06/26 14:11:46;;;;;;;0.30;0.30;;;;;;;;;;4865102;29;20215;-77
2022/06/26 14:14:13;;;;;;;0.52;0.40;;;;;;;;;;4860546;29;20071;-76
2022/06/26 14:16:41;;;;;;;0.30;0.30;;;;;;;;;;4828789;29;20145;-76
2022/06/26 14:19:08;;;;;;;0.32;0.32;;;;;;;;;;4857127;29;20049;-76
2022/06/26 14:21:36;;;;;;;0.40;0.40;;;;;;;;;;4877345;29;20045;-76
2022/06/26 14:26:49;;;;;;;1.05;0.43;;;;;;;;;;4871712;29;20840;-76
2022/06/26 14:29:17;;;;;;;2.67;0.40;;;;;;;;;;4857147;29;20460;-76
2022/06/26 14:31:45;;;;;;;1.38;0.88;;;;;;;;;;4872098;29;20057;-76
2022/06/26 14:34:32;;;;;;;0.50;0.50;;;;;;;;;;4830800;29;20140;-76
2022/06/26 14:37:01;;;;;;;1.38;0.50;;;;;;;;;;4874038;29;20222;-77
2022/06/26 14:39:28;;;;;;;0.47;0.47;;;;;;;;;;4871953;29;20038;-76
2022/06/26 14:41:57;;;;;;;0.95;0.50;;;;;;;;;;4854237;29;20105;-77
2022/06/26 14:44:24;;;;;;;0.55;0.50;;;;;;;;;;4850110;29;20116;-78
2022/06/26 14:46:52;;;;;;;0.50;0.50;;;;;;;;;;4861928;29;20057;-77
2022/06/26 14:49:19;;;;;;;0.60;0.60;;;;;;;;;;4851121;29;20052;-77
2022/06/26 14:51:49;;;;;;;0.85;0.40;;;;;;;;;;4869281;29;20080;-77
2022/06/26 14:54:18;;;;;;;0.60;0.60;;;;;;;;;;4864749;29;20283;-76
2022/06/26 14:56:46;;;;;;;0.60;0.60;;;;;;;;;;4864659;29;20053;-77
2022/06/26 14:59:24;;;;;;;0.57;0.57;;;;;;;;;;4868135;29;20105;-77
2022/06/26 15:01:55;;;;;;;1.10;0.60;;;;;;;;;;4868633;29;20049;-77
2022/06/26 15:04:23;;;;;;;1.65;0.50;;;;;;;;;;4845365;29;20830;-77
2022/06/26 15:06:50;;;;;;;1.33;0.50;;;;;;;;;;4858518;29;20102;-76
2022/06/26 15:09:21;;;;;;;0.77;0.60;;;;;;;;;;4848168;29;20085;-75
2022/06/26 15:11:49;;;;;;;0.60;0.60;;;;;;;;;;4843705;29;20114;-76
2022/06/26 15:14:21;;;;;;;0.55;0.55;;;;;;;;;;4847767;29;20056;-77
2022/06/26 15:16:50;;;;;;;0.75;0.60;;;;;;;;;;4859429;29;20159;-76